sensor_id;sensor_type;location;lat;lon;timestamp;temperature;humidity
68924;DHT22;55961;52.156;20.942;2023-08-31T00:00:55;17.00;86.30
68924;DHT22;55961;52.156;20.942;2023-08-31T00:03:31;17.00;86.40
68924;DHT22;55961;52.156;20.942;2023-08-31T00:05:57;17.00;86.50
68924;DHT22;55961;52.156;20.942;2023-08-31T00:08:23;17.00;86.50
68924;DHT22;55961;52.156;20.942;2023-08-31T00:10:59;17.00;86.70
68924;DHT22;55961;52.156;20.942;2023-08-31T00:13:29;17.00;86.50
68924;DHT22;55961;52.156;20.942;2023-08-31T00:15:55;16.90;86.40
68924;DHT22;55961;52.156;20.942;2023-08-31T00:18:23;16.90;86.40
68924;DHT22;55961;52.156;20.942;2023-08-31T00:20:50;16.90;86.30
68924;DHT22;55961;52.156;20.942;2023-08-31T00:23:16;16.90;86.20
68924;DHT22;55961;52.156;20.942;2023-08-31T00:25:42;16.90;86.10
68924;DHT22;55961;52.156;20.942;2023-08-31T00:28:09;16.90;86.10
68924;DHT22;55961;52.156;20.942;2023-08-31T00:30:35;16.90;86.20
68924;DHT22;55961;52.156;20.942;2023-08-31T00:33:01;16.80;86.40
68924;DHT22;55961;52.156;20.942;2023-08-31T00:35:27;16.80;86.30
68924;DHT22;55961;52.156;20.942;2023-08-31T00:37:55;16.80;86.20
68924;DHT22;55961;52.156;20.942;2023-08-31T00:40:25;16.80;86.20
68924;DHT22;55961;52.156;20.942;2023-08-31T00:42:51;16.80;86.10
68924;DHT22;55961;52.156;20.942;2023-08-31T00:45:18;16.80;86.10
68924;DHT22;55961;52.156;20.942;2023-08-31T00:47:45;16.70;86.10
68924;DHT22;55961;52.156;20.942;2023-08-31T00:50:13;16.70;86.20
68924;DHT22;55961;52.156;20.942;2023-08-31T00:52:39;16.70;86.30
68924;DHT22;55961;52.156;20.942;2023-08-31T00:55:06;16.70;86.40
68924;DHT22;55961;52.156;20.942;2023-08-31T00:57:34;16.70;86.30
68924;DHT22;55961;52.156;20.942;2023-08-31T01:00:00;16.70;86.50
68924;DHT22;55961;52.156;20.942;2023-08-31T01:02:50;16.70;86.50
68924;DHT22;55961;52.156;20.942;2023-08-31T01:05:33;16.70;86.30
68924;DHT22;55961;52.156;20.942;2023-08-31T01:10:55;16.70;86.20
68924;DHT22;55961;52.156;20.942;2023-08-31T01:13:24;16.60;86.10
68924;DHT22;55961;52.156;20.942;2023-08-31T01:15:54;16.60;86.40
68924;DHT22;55961;52.156;20.942;2023-08-31T01:18:22;16.60;86.20
68924;DHT22;55961;52.156;20.942;2023-08-31T01:23:57;16.60;86.50
68924;DHT22;55961;52.156;20.942;2023-08-31T01:26:24;16.60;86.50
68924;DHT22;55961;52.156;20.942;2023-08-31T01:28:51;16.60;86.30
68924;DHT22;55961;52.156;20.942;2023-08-31T01:31:18;16.50;86.30
68924;DHT22;55961;52.156;20.942;2023-08-31T01:33:44;16.50;86.50
68924;DHT22;55961;52.156;20.942;2023-08-31T01:36:31;16.50;86.70
68924;DHT22;55961;52.156;20.942;2023-08-31T01:41:55;16.50;86.50
68924;DHT22;55961;52.156;20.942;2023-08-31T01:44:21;16.50;86.70
68924;DHT22;55961;52.156;20.942;2023-08-31T01:46:53;16.50;86.80
68924;DHT22;55961;52.156;20.942;2023-08-31T01:49:21;16.50;86.90
68924;DHT22;55961;52.156;20.942;2023-08-31T01:51:48;16.50;86.80
68924;DHT22;55961;52.156;20.942;2023-08-31T01:54:13;16.50;86.80
68924;DHT22;55961;52.156;20.942;2023-08-31T01:56:39;16.40;86.70
68924;DHT22;55961;52.156;20.942;2023-08-31T01:59:05;16.40;86.70
68924;DHT22;55961;52.156;20.942;2023-08-31T02:01:34;16.40;86.70
68924;DHT22;55961;52.156;20.942;2023-08-31T02:04:00;16.40;86.60
68924;DHT22;55961;52.156;20.942;2023-08-31T02:06:26;16.40;86.70
68924;DHT22;55961;52.156;20.942;2023-08-31T02:08:52;16.40;86.70
68924;DHT22;55961;52.156;20.942;2023-08-31T02:11:18;16.40;86.50
68924;DHT22;55961;52.156;20.942;2023-08-31T02:13:43;16.40;86.60
68924;DHT22;55961;52.156;20.942;2023-08-31T02:16:09;16.40;86.70
68924;DHT22;55961;52.156;20.942;2023-08-31T02:18:35;16.30;86.70
68924;DHT22;55961;52.156;20.942;2023-08-31T02:21:01;16.30;86.80
68924;DHT22;55961;52.156;20.942;2023-08-31T02:23:29;16.30;86.80
68924;DHT22;55961;52.156;20.942;2023-08-31T02:25:55;16.30;86.70
68924;DHT22;55961;52.156;20.942;2023-08-31T02:28:20;16.30;86.80
68924;DHT22;55961;52.156;20.942;2023-08-31T02:30:58;16.30;86.90
68924;DHT22;55961;52.156;20.942;2023-08-31T02:33:25;16.30;86.80
68924;DHT22;55961;52.156;20.942;2023-08-31T02:35:51;16.30;86.60
68924;DHT22;55961;52.156;20.942;2023-08-31T02:38:16;16.30;86.60
68924;DHT22;55961;52.156;20.942;2023-08-31T02:40:46;16.30;86.60
68924;DHT22;55961;52.156;20.942;2023-08-31T02:43:13;16.30;86.70
68924;DHT22;55961;52.156;20.942;2023-08-31T02:45:39;16.30;86.70
68924;DHT22;55961;52.156;20.942;2023-08-31T02:48:06;16.30;86.70
68924;DHT22;55961;52.156;20.942;2023-08-31T02:50:35;16.30;86.50
68924;DHT22;55961;52.156;20.942;2023-08-31T02:53:01;16.30;86.60
68924;DHT22;55961;52.156;20.942;2023-08-31T02:55:27;16.30;86.70
68924;DHT22;55961;52.156;20.942;2023-08-31T02:57:53;16.30;86.70
68924;DHT22;55961;52.156;20.942;2023-08-31T03:00:20;16.30;86.50
68924;DHT22;55961;52.156;20.942;2023-08-31T03:02:49;16.30;86.70
68924;DHT22;55961;52.156;20.942;2023-08-31T03:05:18;16.30;86.70
68924;DHT22;55961;52.156;20.942;2023-08-31T03:07:44;16.30;87.00
68924;DHT22;55961;52.156;20.942;2023-08-31T03:10:11;16.30;87.40
68924;DHT22;55961;52.156;20.942;2023-08-31T03:12:37;16.30;87.50
68924;DHT22;55961;52.156;20.942;2023-08-31T03:15:05;16.30;87.70
68924;DHT22;55961;52.156;20.942;2023-08-31T03:17:31;16.20;88.30
68924;DHT22;55961;52.156;20.942;2023-08-31T03:19:57;16.20;88.50
68924;DHT22;55961;52.156;20.942;2023-08-31T03:22:23;16.20;88.40
68924;DHT22;55961;52.156;20.942;2023-08-31T03:24:49;16.20;88.50
68924;DHT22;55961;52.156;20.942;2023-08-31T03:27:15;16.20;88.50
68924;DHT22;55961;52.156;20.942;2023-08-31T03:29:42;16.10;88.70
68924;DHT22;55961;52.156;20.942;2023-08-31T03:32:08;16.10;88.80
68924;DHT22;55961;52.156;20.942;2023-08-31T03:34:34;16.10;88.50
68924;DHT22;55961;52.156;20.942;2023-08-31T03:37:00;16.10;88.40
68924;DHT22;55961;52.156;20.942;2023-08-31T03:39:26;16.10;88.70
68924;DHT22;55961;52.156;20.942;2023-08-31T03:41:51;16.10;88.70
68924;DHT22;55961;52.156;20.942;2023-08-31T03:44:17;16.10;88.60
68924;DHT22;55961;52.156;20.942;2023-08-31T03:46:43;16.10;88.60
68924;DHT22;55961;52.156;20.942;2023-08-31T03:49:09;16.10;88.30
68924;DHT22;55961;52.156;20.942;2023-08-31T03:51:35;16.10;88.50
68924;DHT22;55961;52.156;20.942;2023-08-31T03:54:01;16.10;88.40
68924;DHT22;55961;52.156;20.942;2023-08-31T03:56:27;16.10;88.40
68924;DHT22;55961;52.156;20.942;2023-08-31T03:58:53;16.10;88.30
68924;DHT22;55961;52.156;20.942;2023-08-31T04:01:19;16.10;88.30
68924;DHT22;55961;52.156;20.942;2023-08-31T04:03:46;16.10;88.30
68924;DHT22;55961;52.156;20.942;2023-08-31T04:06:12;16.10;88.30
68924;DHT22;55961;52.156;20.942;2023-08-31T04:08:38;16.10;88.40
68924;DHT22;55961;52.156;20.942;2023-08-31T04:11:04;16.10;88.40
68924;DHT22;55961;52.156;20.942;2023-08-31T04:13:30;16.10;88.10
68924;DHT22;55961;52.156;20.942;2023-08-31T04:15:55;16.10;88.00
68924;DHT22;55961;52.156;20.942;2023-08-31T04:18:22;16.10;88.00
68924;DHT22;55961;52.156;20.942;2023-08-31T04:20:52;16.10;88.00
68924;DHT22;55961;52.156;20.942;2023-08-31T04:23:19;16.10;88.00
68924;DHT22;55961;52.156;20.942;2023-08-31T04:25:46;16.10;87.90
68924;DHT22;55961;52.156;20.942;2023-08-31T04:28:13;16.10;87.90
68924;DHT22;55961;52.156;20.942;2023-08-31T04:30:40;16.10;88.10
68924;DHT22;55961;52.156;20.942;2023-08-31T04:33:07;16.10;88.30
68924;DHT22;55961;52.156;20.942;2023-08-31T04:35:33;16.10;88.30
68924;DHT22;55961;52.156;20.942;2023-08-31T04:37:59;16.10;88.40
68924;DHT22;55961;52.156;20.942;2023-08-31T04:40:27;16.10;88.00
68924;DHT22;55961;52.156;20.942;2023-08-31T04:42:54;16.10;88.30
68924;DHT22;55961;52.156;20.942;2023-08-31T04:45:19;16.10;88.00
68924;DHT22;55961;52.156;20.942;2023-08-31T04:47:45;16.10;88.00
68924;DHT22;55961;52.156;20.942;2023-08-31T04:50:11;16.00;88.00
68924;DHT22;55961;52.156;20.942;2023-08-31T04:52:37;16.10;88.00
68924;DHT22;55961;52.156;20.942;2023-08-31T04:55:06;16.10;88.10
68924;DHT22;55961;52.156;20.942;2023-08-31T04:57:35;16.10;87.90
68924;DHT22;55961;52.156;20.942;2023-08-31T05:00:01;16.10;88.10
68924;DHT22;55961;52.156;20.942;2023-08-31T05:02:29;16.10;88.10
68924;DHT22;55961;52.156;20.942;2023-08-31T05:04:55;16.10;88.20
68924;DHT22;55961;52.156;20.942;2023-08-31T05:07:21;16.10;88.00
68924;DHT22;55961;52.156;20.942;2023-08-31T05:09:47;16.10;88.10
68924;DHT22;55961;52.156;20.942;2023-08-31T05:12:13;16.20;88.40
68924;DHT22;55961;52.156;20.942;2023-08-31T05:14:38;16.20;88.40
68924;DHT22;55961;52.156;20.942;2023-08-31T05:17:06;16.20;88.50
68924;DHT22;55961;52.156;20.942;2023-08-31T05:19:31;16.20;88.60
68924;DHT22;55961;52.156;20.942;2023-08-31T05:21:58;16.30;88.30
68924;DHT22;55961;52.156;20.942;2023-08-31T05:24:23;16.30;87.20
68924;DHT22;55961;52.156;20.942;2023-08-31T05:26:49;16.30;87.30
68924;DHT22;55961;52.156;20.942;2023-08-31T05:29:15;16.30;87.40
68924;DHT22;55961;52.156;20.942;2023-08-31T05:31:42;16.40;87.20
68924;DHT22;55961;52.156;20.942;2023-08-31T05:34:09;16.40;86.50
68924;DHT22;55961;52.156;20.942;2023-08-31T05:36:36;16.40;86.30
68924;DHT22;55961;52.156;20.942;2023-08-31T05:39:02;16.40;86.30
68924;DHT22;55961;52.156;20.942;2023-08-31T05:41:28;16.40;86.20
68924;DHT22;55961;52.156;20.942;2023-08-31T05:43:54;16.40;86.20
68924;DHT22;55961;52.156;20.942;2023-08-31T05:46:20;16.50;85.70
68924;DHT22;55961;52.156;20.942;2023-08-31T05:48:46;16.50;85.80
68924;DHT22;55961;52.156;20.942;2023-08-31T05:51:13;16.50;86.10
68924;DHT22;55961;52.156;20.942;2023-08-31T05:53:38;16.50;85.80
68924;DHT22;55961;52.156;20.942;2023-08-31T05:56:04;16.50;85.50
68924;DHT22;55961;52.156;20.942;2023-08-31T05:58:31;16.60;84.70
68924;DHT22;55961;52.156;20.942;2023-08-31T06:00:58;16.60;84.20
68924;DHT22;55961;52.156;20.942;2023-08-31T06:03:25;16.70;83.40
68924;DHT22;55961;52.156;20.942;2023-08-31T06:05:51;16.70;83.10
68924;DHT22;55961;52.156;20.942;2023-08-31T06:08:17;16.70;83.20
68924;DHT22;55961;52.156;20.942;2023-08-31T06:10:43;16.70;82.80
68924;DHT22;55961;52.156;20.942;2023-08-31T06:13:09;16.70;82.00
68924;DHT22;55961;52.156;20.942;2023-08-31T06:15:35;16.80;81.20
68924;DHT22;55961;52.156;20.942;2023-08-31T06:18:00;16.80;80.80
68924;DHT22;55961;52.156;20.942;2023-08-31T06:20:27;16.90;79.50
68924;DHT22;55961;52.156;20.942;2023-08-31T06:22:52;16.90;79.50
68924;DHT22;55961;52.156;20.942;2023-08-31T06:25:18;16.90;79.50
68924;DHT22;55961;52.156;20.942;2023-08-31T06:27:45;16.90;79.90
68924;DHT22;55961;52.156;20.942;2023-08-31T06:30:11;17.00;79.20
68924;DHT22;55961;52.156;20.942;2023-08-31T06:32:46;17.00;78.70
68924;DHT22;55961;52.156;20.942;2023-08-31T06:35:13;17.00;78.10
68924;DHT22;55961;52.156;20.942;2023-08-31T06:37:39;17.10;78.00
68924;DHT22;55961;52.156;20.942;2023-08-31T06:40:06;17.10;77.90
68924;DHT22;55961;52.156;20.942;2023-08-31T06:42:37;17.10;78.20
68924;DHT22;55961;52.156;20.942;2023-08-31T06:45:04;17.20;78.50
68924;DHT22;55961;52.156;20.942;2023-08-31T06:47:31;17.20;78.60
68924;DHT22;55961;52.156;20.942;2023-08-31T06:49:57;17.30;77.80
68924;DHT22;55961;52.156;20.942;2023-08-31T06:52:24;17.40;77.50
68924;DHT22;55961;52.156;20.942;2023-08-31T06:54:50;17.40;77.50
68924;DHT22;55961;52.156;20.942;2023-08-31T06:57:21;17.40;78.00
68924;DHT22;55961;52.156;20.942;2023-08-31T06:59:48;17.50;76.60
68924;DHT22;55961;52.156;20.942;2023-08-31T07:02:14;17.50;75.90
68924;DHT22;55961;52.156;20.942;2023-08-31T07:04:40;17.60;75.80
68924;DHT22;55961;52.156;20.942;2023-08-31T07:07:06;17.60;74.70
68924;DHT22;55961;52.156;20.942;2023-08-31T07:09:34;17.60;74.90
68924;DHT22;55961;52.156;20.942;2023-08-31T07:12:01;17.60;74.90
68924;DHT22;55961;52.156;20.942;2023-08-31T07:14:29;17.60;74.70
68924;DHT22;55961;52.156;20.942;2023-08-31T07:16:55;17.70;74.40
68924;DHT22;55961;52.156;20.942;2023-08-31T07:19:21;17.70;73.80
68924;DHT22;55961;52.156;20.942;2023-08-31T07:21:47;17.80;74.30
68924;DHT22;55961;52.156;20.942;2023-08-31T07:24:13;17.80;74.20
68924;DHT22;55961;52.156;20.942;2023-08-31T07:26:39;17.90;74.30
68924;DHT22;55961;52.156;20.942;2023-08-31T07:29:05;18.00;73.20
68924;DHT22;55961;52.156;20.942;2023-08-31T07:31:31;18.00;73.10
68924;DHT22;55961;52.156;20.942;2023-08-31T07:33:58;18.10;72.40
68924;DHT22;55961;52.156;20.942;2023-08-31T07:36:24;18.20;72.40
68924;DHT22;55961;52.156;20.942;2023-08-31T07:38:51;18.30;71.50
68924;DHT22;55961;52.156;20.942;2023-08-31T07:41:16;18.40;71.70
68924;DHT22;55961;52.156;20.942;2023-08-31T07:43:42;18.50;70.70
68924;DHT22;55961;52.156;20.942;2023-08-31T07:46:08;18.70;70.80
68924;DHT22;55961;52.156;20.942;2023-08-31T07:48:34;18.80;70.20
68924;DHT22;55961;52.156;20.942;2023-08-31T07:51:00;18.90;69.20
68924;DHT22;55961;52.156;20.942;2023-08-31T07:53:26;19.10;69.00
68924;DHT22;55961;52.156;20.942;2023-08-31T07:55:53;19.20;68.70
68924;DHT22;55961;52.156;20.942;2023-08-31T07:58:23;19.40;67.30
68924;DHT22;55961;52.156;20.942;2023-08-31T08:00:51;19.60;65.50
68924;DHT22;55961;52.156;20.942;2023-08-31T08:03:17;19.70;64.70
68924;DHT22;55961;52.156;20.942;2023-08-31T08:05:43;19.80;65.20
68924;DHT22;55961;52.156;20.942;2023-08-31T08:08:10;19.90;64.60
68924;DHT22;55961;52.156;20.942;2023-08-31T08:10:36;20.00;63.70
68924;DHT22;55961;52.156;20.942;2023-08-31T08:13:02;20.10;63.50
68924;DHT22;55961;52.156;20.942;2023-08-31T08:15:29;20.20;63.90
68924;DHT22;55961;52.156;20.942;2023-08-31T08:17:55;20.30;63.40
68924;DHT22;55961;52.156;20.942;2023-08-31T08:20:23;20.40;63.30
68924;DHT22;55961;52.156;20.942;2023-08-31T08:22:50;20.50;62.80
68924;DHT22;55961;52.156;20.942;2023-08-31T08:25:19;20.60;62.30
68924;DHT22;55961;52.156;20.942;2023-08-31T08:27:46;20.70;62.80
68924;DHT22;55961;52.156;20.942;2023-08-31T08:30:13;20.80;61.50
68924;DHT22;55961;52.156;20.942;2023-08-31T08:32:40;20.90;60.90
68924;DHT22;55961;52.156;20.942;2023-08-31T08:35:06;21.00;61.50
68924;DHT22;55961;52.156;20.942;2023-08-31T08:37:32;21.20;62.10
68924;DHT22;55961;52.156;20.942;2023-08-31T08:39:58;21.40;59.70
68924;DHT22;55961;52.156;20.942;2023-08-31T08:42:25;21.50;59.10
68924;DHT22;55961;52.156;20.942;2023-08-31T08:44:52;21.60;58.60
68924;DHT22;55961;52.156;20.942;2023-08-31T08:47:18;21.60;58.00
68924;DHT22;55961;52.156;20.942;2023-08-31T08:49:44;21.70;57.60
68924;DHT22;55961;52.156;20.942;2023-08-31T08:52:11;21.70;57.40
68924;DHT22;55961;52.156;20.942;2023-08-31T08:54:38;21.60;57.80
68924;DHT22;55961;52.156;20.942;2023-08-31T08:57:04;21.60;58.00
68924;DHT22;55961;52.156;20.942;2023-08-31T08:59:31;21.60;57.70
68924;DHT22;55961;52.156;20.942;2023-08-31T09:01:57;21.60;58.60
68924;DHT22;55961;52.156;20.942;2023-08-31T09:04:23;21.70;57.90
68924;DHT22;55961;52.156;20.942;2023-08-31T09:06:52;21.70;58.20
68924;DHT22;55961;52.156;20.942;2023-08-31T09:09:18;21.80;58.50
68924;DHT22;55961;52.156;20.942;2023-08-31T09:11:45;21.80;57.60
68924;DHT22;55961;52.156;20.942;2023-08-31T09:14:18;21.80;56.90
68924;DHT22;55961;52.156;20.942;2023-08-31T09:16:46;21.80;56.80
68924;DHT22;55961;52.156;20.942;2023-08-31T09:19:21;21.80;57.40
68924;DHT22;55961;52.156;20.942;2023-08-31T09:21:48;21.80;57.40
68924;DHT22;55961;52.156;20.942;2023-08-31T09:24:14;21.80;56.40
68924;DHT22;55961;52.156;20.942;2023-08-31T09:26:57;21.80;56.60
68924;DHT22;55961;52.156;20.942;2023-08-31T09:29:24;21.70;56.90
68924;DHT22;55961;52.156;20.942;2023-08-31T09:31:51;21.70;57.80
68924;DHT22;55961;52.156;20.942;2023-08-31T09:34:17;21.70;57.70
68924;DHT22;55961;52.156;20.942;2023-08-31T09:36:44;21.70;58.60
68924;DHT22;55961;52.156;20.942;2023-08-31T09:39:10;21.80;58.60
68924;DHT22;55961;52.156;20.942;2023-08-31T09:41:53;21.90;57.40
68924;DHT22;55961;52.156;20.942;2023-08-31T09:44:21;22.00;57.70
68924;DHT22;55961;52.156;20.942;2023-08-31T09:46:47;22.20;58.20
68924;DHT22;55961;52.156;20.942;2023-08-31T09:49:16;22.40;57.80
68924;DHT22;55961;52.156;20.942;2023-08-31T09:51:46;22.60;57.50
68924;DHT22;55961;52.156;20.942;2023-08-31T09:54:14;22.70;55.60
68924;DHT22;55961;52.156;20.942;2023-08-31T09:56:45;22.80;56.10
68924;DHT22;55961;52.156;20.942;2023-08-31T09:59:13;22.90;55.50
68924;DHT22;55961;52.156;20.942;2023-08-31T10:01:46;22.90;55.80
68924;DHT22;55961;52.156;20.942;2023-08-31T10:04:13;23.00;56.30
68924;DHT22;55961;52.156;20.942;2023-08-31T10:06:40;23.00;56.30
68924;DHT22;55961;52.156;20.942;2023-08-31T10:09:06;23.10;55.80
68924;DHT22;55961;52.156;20.942;2023-08-31T10:11:36;23.10;55.60
68924;DHT22;55961;52.156;20.942;2023-08-31T10:14:04;23.10;54.90
68924;DHT22;55961;52.156;20.942;2023-08-31T10:16:30;23.10;55.00
68924;DHT22;55961;52.156;20.942;2023-08-31T10:18:57;23.10;55.50
68924;DHT22;55961;52.156;20.942;2023-08-31T10:21:24;23.20;55.30
68924;DHT22;55961;52.156;20.942;2023-08-31T10:23:50;23.30;54.60
68924;DHT22;55961;52.156;20.942;2023-08-31T10:26:31;23.40;54.30
68924;DHT22;55961;52.156;20.942;2023-08-31T10:28:58;23.40;53.50
68924;DHT22;55961;52.156;20.942;2023-08-31T10:31:29;23.40;53.70
68924;DHT22;55961;52.156;20.942;2023-08-31T10:34:05;23.40;53.90
68924;DHT22;55961;52.156;20.942;2023-08-31T10:36:55;23.30;53.90
68924;DHT22;55961;52.156;20.942;2023-08-31T10:39:21;23.30;53.80
68924;DHT22;55961;52.156;20.942;2023-08-31T10:41:57;23.30;53.40
68924;DHT22;55961;52.156;20.942;2023-08-31T10:44:27;23.30;54.00
68924;DHT22;55961;52.156;20.942;2023-08-31T10:46:59;23.30;54.60
68924;DHT22;55961;52.156;20.942;2023-08-31T10:49:25;23.30;55.10
68924;DHT22;55961;52.156;20.942;2023-08-31T10:52:15;23.30;54.00
68924;DHT22;55961;52.156;20.942;2023-08-31T10:54:46;23.30;54.60
68924;DHT22;55961;52.156;20.942;2023-08-31T10:57:13;23.30;54.60
68924;DHT22;55961;52.156;20.942;2023-08-31T11:02:46;23.30;53.60
68924;DHT22;55961;52.156;20.942;2023-08-31T11:05:17;23.40;53.80
68924;DHT22;55961;52.156;20.942;2023-08-31T11:07:47;23.30;54.00
68924;DHT22;55961;52.156;20.942;2023-08-31T11:10:22;23.30;53.60
68924;DHT22;55961;52.156;20.942;2023-08-31T11:12:54;23.30;53.30
68924;DHT22;55961;52.156;20.942;2023-08-31T11:15:21;23.30;54.50
68924;DHT22;55961;52.156;20.942;2023-08-31T11:17:50;23.40;53.20
68924;DHT22;55961;52.156;20.942;2023-08-31T11:20:18;23.40;53.60
68924;DHT22;55961;52.156;20.942;2023-08-31T11:22:51;23.50;53.40
68924;DHT22;55961;52.156;20.942;2023-08-31T11:25:20;23.60;54.20
68924;DHT22;55961;52.156;20.942;2023-08-31T11:28:00;23.70;53.50
68924;DHT22;55961;52.156;20.942;2023-08-31T11:30:28;23.70;51.60
68924;DHT22;55961;52.156;20.942;2023-08-31T11:33:05;23.70;52.20
68924;DHT22;55961;52.156;20.942;2023-08-31T11:35:36;23.70;52.70
68924;DHT22;55961;52.156;20.942;2023-08-31T11:38:03;23.80;51.80
68924;DHT22;55961;52.156;20.942;2023-08-31T11:40:30;23.90;52.50
68924;DHT22;55961;52.156;20.942;2023-08-31T11:42:57;24.00;50.40
68924;DHT22;55961;52.156;20.942;2023-08-31T11:45:23;24.10;50.70
68924;DHT22;55961;52.156;20.942;2023-08-31T11:47:50;24.20;50.50
68924;DHT22;55961;52.156;20.942;2023-08-31T11:50:17;24.20;50.40
68924;DHT22;55961;52.156;20.942;2023-08-31T11:52:45;24.20;50.60
68924;DHT22;55961;52.156;20.942;2023-08-31T11:55:14;24.30;50.80
68924;DHT22;55961;52.156;20.942;2023-08-31T11:57:47;24.30;50.90
68924;DHT22;55961;52.156;20.942;2023-08-31T12:00:16;24.40;50.10
68924;DHT22;55961;52.156;20.942;2023-08-31T12:02:42;24.30;50.10
68924;DHT22;55961;52.156;20.942;2023-08-31T12:05:12;24.40;50.50
68924;DHT22;55961;52.156;20.942;2023-08-31T12:07:41;24.40;51.40
68924;DHT22;55961;52.156;20.942;2023-08-31T12:10:08;24.40;50.90
68924;DHT22;55961;52.156;20.942;2023-08-31T12:12:35;24.40;51.00
68924;DHT22;55961;52.156;20.942;2023-08-31T12:15:02;24.50;50.90
68924;DHT22;55961;52.156;20.942;2023-08-31T12:17:31;24.50;51.30
68924;DHT22;55961;52.156;20.942;2023-08-31T12:20:05;24.60;51.20
68924;DHT22;55961;52.156;20.942;2023-08-31T12:22:32;24.70;50.60
68924;DHT22;55961;52.156;20.942;2023-08-31T12:24:58;24.70;50.70
68924;DHT22;55961;52.156;20.942;2023-08-31T12:27:24;24.80;51.10
68924;DHT22;55961;52.156;20.942;2023-08-31T12:29:50;24.90;49.90
68924;DHT22;55961;52.156;20.942;2023-08-31T12:32:16;24.90;49.70
68924;DHT22;55961;52.156;20.942;2023-08-31T12:34:45;25.00;49.20
68924;DHT22;55961;52.156;20.942;2023-08-31T12:37:11;25.00;48.50
68924;DHT22;55961;52.156;20.942;2023-08-31T12:39:37;25.00;48.90
68924;DHT22;55961;52.156;20.942;2023-08-31T12:42:04;24.90;48.70
68924;DHT22;55961;52.156;20.942;2023-08-31T12:44:30;24.80;48.70
68924;DHT22;55961;52.156;20.942;2023-08-31T12:46:57;24.70;49.90
68924;DHT22;55961;52.156;20.942;2023-08-31T12:49:22;24.70;49.80
68924;DHT22;55961;52.156;20.942;2023-08-31T12:51:49;24.60;50.60
68924;DHT22;55961;52.156;20.942;2023-08-31T12:54:16;24.60;50.30
68924;DHT22;55961;52.156;20.942;2023-08-31T12:56:42;24.60;50.30
68924;DHT22;55961;52.156;20.942;2023-08-31T12:59:09;24.60;49.70
68924;DHT22;55961;52.156;20.942;2023-08-31T13:01:35;24.60;49.50
68924;DHT22;55961;52.156;20.942;2023-08-31T13:04:01;24.70;49.70
68924;DHT22;55961;52.156;20.942;2023-08-31T13:06:28;24.70;49.90
68924;DHT22;55961;52.156;20.942;2023-08-31T13:08:54;24.70;50.00
68924;DHT22;55961;52.156;20.942;2023-08-31T13:11:20;24.70;50.10
68924;DHT22;55961;52.156;20.942;2023-08-31T13:13:49;24.70;49.70
68924;DHT22;55961;52.156;20.942;2023-08-31T13:16:19;24.70;50.60
68924;DHT22;55961;52.156;20.942;2023-08-31T13:18:44;24.70;50.50
68924;DHT22;55961;52.156;20.942;2023-08-31T13:21:10;24.70;50.40
68924;DHT22;55961;52.156;20.942;2023-08-31T13:23:36;24.80;49.60
68924;DHT22;55961;52.156;20.942;2023-08-31T13:26:02;24.90;49.40
68924;DHT22;55961;52.156;20.942;2023-08-31T13:28:29;25.00;49.10
68924;DHT22;55961;52.156;20.942;2023-08-31T13:30:56;25.00;49.10
68924;DHT22;55961;52.156;20.942;2023-08-31T13:33:23;25.00;48.80
68924;DHT22;55961;52.156;20.942;2023-08-31T13:35:49;25.00;48.90
68924;DHT22;55961;52.156;20.942;2023-08-31T13:38:15;25.00;48.90
68924;DHT22;55961;52.156;20.942;2023-08-31T13:40:43;25.00;48.10
68924;DHT22;55961;52.156;20.942;2023-08-31T13:43:09;25.00;48.90
68924;DHT22;55961;52.156;20.942;2023-08-31T13:45:35;25.00;48.80
68924;DHT22;55961;52.156;20.942;2023-08-31T13:48:01;24.90;49.00
68924;DHT22;55961;52.156;20.942;2023-08-31T13:50:27;24.90;49.10
68924;DHT22;55961;52.156;20.942;2023-08-31T13:52:53;24.80;48.30
68924;DHT22;55961;52.156;20.942;2023-08-31T13:55:19;24.70;48.50
68924;DHT22;55961;52.156;20.942;2023-08-31T13:57:45;24.60;50.10
68924;DHT22;55961;52.156;20.942;2023-08-31T14:00:12;24.30;51.70
68924;DHT22;55961;52.156;20.942;2023-08-31T14:02:38;24.00;51.60
68924;DHT22;55961;52.156;20.942;2023-08-31T14:05:05;23.70;52.10
68924;DHT22;55961;52.156;20.942;2023-08-31T14:07:32;23.40;52.70
68924;DHT22;55961;52.156;20.942;2023-08-31T14:09:58;23.00;53.30
68924;DHT22;55961;52.156;20.942;2023-08-31T14:12:24;22.70;53.40
68924;DHT22;55961;52.156;20.942;2023-08-31T14:14:51;22.50;54.00
68924;DHT22;55961;52.156;20.942;2023-08-31T14:17:18;22.30;54.10
68924;DHT22;55961;52.156;20.942;2023-08-31T14:19:44;22.00;54.70
68924;DHT22;55961;52.156;20.942;2023-08-31T14:22:10;21.90;55.50
68924;DHT22;55961;52.156;20.942;2023-08-31T14:24:37;21.80;56.10
68924;DHT22;55961;52.156;20.942;2023-08-31T14:27:04;21.60;55.90
68924;DHT22;55961;52.156;20.942;2023-08-31T14:29:30;21.50;56.20
68924;DHT22;55961;52.156;20.942;2023-08-31T14:31:56;21.40;56.60
68924;DHT22;55961;52.156;20.942;2023-08-31T14:34:22;21.20;56.90
68924;DHT22;55961;52.156;20.942;2023-08-31T14:36:48;21.10;58.40
68924;DHT22;55961;52.156;20.942;2023-08-31T14:39:14;21.00;59.40
68924;DHT22;55961;52.156;20.942;2023-08-31T14:41:44;20.80;59.70
68924;DHT22;55961;52.156;20.942;2023-08-31T14:44:09;20.60;61.90
68924;DHT22;55961;52.156;20.942;2023-08-31T14:46:35;20.40;62.70
68924;DHT22;55961;52.156;20.942;2023-08-31T14:49:01;20.10;64.60
68924;DHT22;55961;52.156;20.942;2023-08-31T14:51:27;19.90;66.30
68924;DHT22;55961;52.156;20.942;2023-08-31T14:53:53;19.70;67.20
68924;DHT22;55961;52.156;20.942;2023-08-31T14:56:19;19.50;68.50
68924;DHT22;55961;52.156;20.942;2023-08-31T14:58:45;19.30;69.20
68924;DHT22;55961;52.156;20.942;2023-08-31T15:01:11;19.20;70.00
68924;DHT22;55961;52.156;20.942;2023-08-31T15:03:37;19.10;70.70
68924;DHT22;55961;52.156;20.942;2023-08-31T15:06:03;19.00;71.50
68924;DHT22;55961;52.156;20.942;2023-08-31T15:08:39;18.90;72.40
68924;DHT22;55961;52.156;20.942;2023-08-31T15:11:07;18.80;72.90
68924;DHT22;55961;52.156;20.942;2023-08-31T15:13:33;18.70;73.40
68924;DHT22;55961;52.156;20.942;2023-08-31T15:15:59;18.60;74.10
68924;DHT22;55961;52.156;20.942;2023-08-31T15:18:26;18.60;74.50
68924;DHT22;55961;52.156;20.942;2023-08-31T15:20:53;18.60;74.90
68924;DHT22;55961;52.156;20.942;2023-08-31T15:23:19;18.70;74.70
68924;DHT22;55961;52.156;20.942;2023-08-31T15:25:45;18.70;74.50
68924;DHT22;55961;52.156;20.942;2023-08-31T15:28:11;18.80;74.70